Accueil
METAR-TAF:

METAR-TAF

Aéroports :

Lanvéoc, France

Base aérienne Lanvéoc-Poulmic

latitude: 48-17N, longitude: 004-26W, altitude: 87 m

Observation

Le bulletin a été fait il y a 29 minutes, à 22:30 UTC
Vent 6 kt de sud-ouest
Température 16°C
Humidité 94%
Pression 1025 hPa
Visibilité: 6000 m
Ciel couvert à une hauteur de 300 ft

METAR: LFRL 202230Z AUTO 22006KT 6000 OVC003 16/15 Q1025

Heure: 00:59 (22:59 UTC)


TAF: absent

Observations et prévisions météorologiques de plus de 4000 aéroports (messages METAR et TAF).

Les stations disponibles sont représentées par des disques jaunes et rouges sur la carte.

Passer la souris dessus pour voir le nom de la station.

Cliquer dessus pour voir les observations et prévisions météorologiques.

Pour changer de carte: cliquez sur les boutons verts avec une croix noire pour zoomer, sur le bouton vert avec un tiret pour effectuer un zoom arrière, ou sur les flèches vertes pour les cartes adjacentes.


METAR-TAF: